nws-alerts: Checking more than four warning/county codes can delay the loading of your pages. You should use a cron job to get the data.
EllijayWeather Station Historical Data
Daily Summary for April 2, 2019 Units:  English    Metric   Both
Daily Weekly Monthly Yearly Custom
  High: Low: Average:
Temperature: 58.8 °F 37.9 °F 49 °F
Dew Point: 35.2 °F 21.7 °F 28 °F
Humidity: 82% 35% 45%
Wind Speed: 8.1mph 0.0mph 0.4mph
Wind Gust: 10.0mph - -
Wind- - South
Pressure: 30.25 in 30.14 in -
Precipitation: 0.00 in    
Historical Graphs
 
 
Tabular Data for April 2, 2019
Time Temperature Dew Point Pressure Wind Wind Speed Wind Gust Humidity Rainfall Rate (Hourly) solar
00:04 45.3 °F 23.0 °F 30.23 in Calm   4.0 mph 41% 0.00 in meteobridge W/m2
00:09 46.2 °F 24.4 °F 30.23 in Calm   1.0 mph 42% 0.00 in meteobridge W/m2
00:14 46.9 °F 22.6 °F 30.23 in SE 4.0 mph 4.0 mph 38% 0.00 in meteobridge W/m2
00:19 47.5 °F 23.7 °F 30.23 in Calm   4.0 mph 39% 0.00 in meteobridge W/m2
00:24 47.7 °F 24.4 °F 30.23 in Calm   3.0 mph 40% 0.00 in meteobridge W/m2
00:29 47.8 °F 22.8 °F 30.23 in Calm   5.0 mph 37% 0.00 in meteobridge W/m2
00:34 47.8 °F 22.1 °F 30.24 in Calm   6.0 mph 36% 0.00 in meteobridge W/m2
00:39 48.0 °F 23.0 °F 30.24 in Calm   1.0 mph 37% 0.00 in meteobridge W/m2
00:44 48.0 °F 22.3 °F 30.24 in Calm   1.0 mph 36% 0.00 in meteobridge W/m2
00:49 48.0 °F 21.7 °F 30.24 in Calm     35% 0.00 in meteobridge W/m2
00:54 48.0 °F 23.5 °F 30.24 in Calm     38% 0.00 in meteobridge W/m2
00:59 48.0 °F 23.0 °F 30.24 in Calm     37% 0.00 in meteobridge W/m2
01:04 47.8 °F 22.1 °F 30.24 in Calm   4.0 mph 36% 0.00 in meteobridge W/m2
01:09 47.8 °F 22.8 °F 30.24 in Calm     37% 0.00 in meteobridge W/m2
01:14 47.8 °F 23.5 °F 30.24 in Calm     38% 0.00 in meteobridge W/m2
01:19 47.7 °F 22.6 °F 30.24 in Calm     37% 0.00 in meteobridge W/m2
01:24 47.7 °F 22.6 °F 30.24 in SE 0.9 mph 2.0 mph 37% 0.00 in meteobridge W/m2
01:29 47.5 °F 22.5 °F 30.24 in Calm   1.0 mph 37% 0.00 in meteobridge W/m2
01:34 47.5 °F 22.5 °F 30.24 in Calm   1.0 mph 37% 0.00 in meteobridge W/m2
01:39 47.5 °F 23.7 °F 30.24 in Calm     39% 0.00 in meteobridge W/m2
01:44 47.1 °F 22.1 °F 30.24 in SE 0.9 mph 4.0 mph 37% 0.00 in meteobridge W/m2
01:49 47.1 °F 22.8 °F 30.24 in SE 0.9 mph 1.0 mph 38% 0.00 in meteobridge W/m2
01:54 47.1 °F 22.8 °F 30.23 in Calm     38% 0.00 in meteobridge W/m2
01:59 47.1 °F 22.8 °F 30.23 in Calm     38% 0.00 in meteobridge W/m2
02:04 46.9 °F 22.6 °F 30.23 in Calm   1.0 mph 38% 0.00 in meteobridge W/m2
02:09 46.9 °F 22.6 °F 30.23 in Calm     38% 0.00 in meteobridge W/m2
02:14 46.6 °F 22.3 °F 30.23 in Calm   4.0 mph 38% 0.00 in meteobridge W/m2
02:19 46.6 °F 23.5 °F 30.23 in Calm     40% 0.00 in meteobridge W/m2
02:24 46.4 °F 23.4 °F 30.23 in Calm   1.0 mph 40% 0.00 in meteobridge W/m2
02:29 46.4 °F 22.8 °F 30.22 in ESE 2.0 mph 4.0 mph 39% 0.00 in meteobridge W/m2
02:34 46.4 °F 23.4 °F 30.21 in SE 0.9 mph 1.0 mph 40% 0.00 in meteobridge W/m2
02:39 46.4 °F 22.8 °F 30.21 in Calm   6.0 mph 39% 0.00 in meteobridge W/m2
02:44 46.6 °F 23.5 °F 30.21 in Calm   5.0 mph 40% 0.00 in meteobridge W/m2
02:49 46.6 °F 23.0 °F 30.20 in Calm   2.0 mph 39% 0.00 in meteobridge W/m2
02:54 46.6 °F 22.3 °F 30.21 in Calm   5.0 mph 38% 0.00 in meteobridge W/m2
02:59 46.6 °F 22.3 °F 30.21 in Calm   2.0 mph 38% 0.00 in meteobridge W/m2
03:04 46.6 °F 22.3 °F 30.21 in Calm   2.0 mph 38% 0.00 in meteobridge W/m2
03:09 46.6 °F 22.3 °F 30.20 in Calm   1.0 mph 38% 0.00 in meteobridge W/m2
03:14 46.4 °F 22.1 °F 30.19 in Calm     38% 0.00 in meteobridge W/m2
03:19 46.4 °F 22.1 °F 30.20 in SE 2.0 mph 5.0 mph 38% 0.00 in meteobridge W/m2
03:24 46.4 °F 22.8 °F 30.20 in Calm     39% 0.00 in meteobridge W/m2
03:29 46.4 °F 23.4 °F 30.20 in Calm     40% 0.00 in meteobridge W/m2
03:34 46.2 °F 21.9 °F 30.20 in Calm   4.0 mph 38% 0.00 in meteobridge W/m2
03:39 46.2 °F 23.2 °F 30.20 in Calm     40% 0.00 in meteobridge W/m2
03:44 46.2 °F 23.2 °F 30.19 in Calm     40% 0.00 in meteobridge W/m2
03:49 46.0 °F 22.5 °F 30.19 in SSE 2.0 mph 4.0 mph 39% 0.00 in meteobridge W/m2
03:54 46.0 °F 23.0 °F 30.19 in Calm   5.0 mph 40% 0.00 in meteobridge W/m2
03:59 46.0 °F 22.5 °F 30.19 in Calm   2.0 mph 39% 0.00 in meteobridge W/m2
04:04 46.0 °F 23.0 °F 30.19 in Calm     40% 0.00 in meteobridge W/m2
04:09 46.0 °F 22.5 °F 30.19 in SE 4.0 mph 4.0 mph 39% 0.00 in meteobridge W/m2
04:14 46.0 °F 22.5 °F 30.19 in SE 2.0 mph 2.0 mph 39% 0.00 in meteobridge W/m2
04:19 45.9 °F 22.3 °F 30.19 in Calm   2.0 mph 39% 0.00 in meteobridge W/m2
04:24 46.0 °F 22.5 °F 30.19 in Calm     39% 0.00 in meteobridge W/m2
04:29 45.9 °F 22.3 °F 30.19 in Calm     39% 0.00 in meteobridge W/m2
04:34 45.9 °F 22.8 °F 30.18 in Calm     40% 0.00 in meteobridge W/m2
04:39 45.9 °F 22.3 °F 30.19 in Calm   1.0 mph 39% 0.00 in meteobridge W/m2
04:44 45.9 °F 22.3 °F 30.19 in Calm     39% 0.00 in meteobridge W/m2
04:49 45.7 °F 23.4 °F 30.19 in Calm     41% 0.00 in meteobridge W/m2
04:54 45.7 °F 22.8 °F 30.19 in Calm   1.0 mph 40% 0.00 in meteobridge W/m2
04:59 45.7 °F 23.4 °F 30.19 in Calm   1.0 mph 41% 0.00 in meteobridge W/m2
05:04 45.5 °F 23.7 °F 30.19 in Calm     42% 0.00 in meteobridge W/m2
05:09 45.5 °F 23.2 °F 30.18 in Calm     41% 0.00 in meteobridge W/m2
05:14 45.3 °F 22.5 °F 30.18 in Calm     40% 0.00 in meteobridge W/m2
05:19 45.3 °F 22.5 °F 30.18 in ESE 0.9 mph 1.0 mph 40% 0.00 in meteobridge W/m2
05:24 45.3 °F 21.7 °F 30.18 in Calm     39% 0.00 in meteobridge W/m2
05:29 45.3 °F 21.7 °F 30.18 in Calm     39% 0.00 in meteobridge W/m2
05:34 45.3 °F 22.5 °F 30.18 in Calm     40% 0.00 in meteobridge W/m2
05:39 45.3 °F 22.5 °F 30.18 in Calm     40% 0.00 in meteobridge W/m2
05:44 45.3 °F 22.5 °F 30.18 in Calm     40% 0.00 in meteobridge W/m2
05:49 45.1 °F 23.4 °F 30.18 in Calm   1.0 mph 42% 0.00 in meteobridge W/m2
05:54 45.0 °F 22.1 °F 30.18 in Calm   1.0 mph 40% 0.00 in meteobridge W/m2
05:59 45.0 °F 22.6 °F 30.18 in Calm   1.0 mph 41% 0.00 in meteobridge W/m2
06:04 45.0 °F 23.7 °F 30.18 in Calm     43% 0.00 in meteobridge W/m2
06:09 45.0 °F 22.6 °F 30.18 in Calm   1.0 mph 41% 0.00 in meteobridge W/m2
06:14 44.8 °F 22.5 °F 30.18 in Calm     41% 0.00 in meteobridge W/m2
06:19 44.8 °F 23.7 °F 30.18 in Calm   1.0 mph 43% 0.00 in meteobridge W/m2
06:24 44.8 °F 22.5 °F 30.18 in Calm     41% 0.00 in meteobridge W/m2
06:29 44.8 °F 23.0 °F 30.18 in Calm     42% 0.00 in meteobridge W/m2
06:34 44.8 °F 23.0 °F 30.18 in Calm     42% 0.00 in meteobridge W/m2
06:39 44.8 °F 23.0 °F 30.19 in Calm     42% 0.00 in meteobridge W/m2
06:44 44.8 °F 23.0 °F 30.19 in Calm     42% 0.00 in meteobridge W/m2
06:49 44.6 °F 23.0 °F 30.19 in Calm     42% 0.00 in meteobridge W/m2
06:54 44.8 °F 24.3 °F 30.19 in Calm     44% 0.00 in meteobridge W/m2
06:59 44.8 °F 23.7 °F 30.19 in Calm     43% 0.00 in meteobridge W/m2
07:04 44.8 °F 23.0 °F 30.19 in Calm     42% 0.00 in meteobridge W/m2
07:09 44.8 °F 23.0 °F 30.20 in Calm   1.0 mph 42% 0.00 in meteobridge W/m2
07:14 44.8 °F 23.0 °F 30.20 in Calm     42% 0.00 in meteobridge W/m2
07:19 44.8 °F 23.0 °F 30.20 in Calm     42% 0.00 in meteobridge W/m2
07:24 44.8 °F 23.0 °F 30.20 in Calm   2.0 mph 42% 0.00 in meteobridge W/m2
07:29 44.6 °F 23.0 °F 30.21 in Calm     42% 0.00 in meteobridge W/m2
07:34 44.8 °F 23.7 °F 30.21 in Calm     43% 0.00 in meteobridge W/m2
07:39 44.6 °F 23.0 °F 30.21 in Calm     42% 0.00 in meteobridge W/m2
07:44 44.8 °F 24.3 °F 30.22 in Calm     44% 0.00 in meteobridge W/m2
07:49 44.6 °F 24.1 °F 30.22 in Calm     44% 0.00 in meteobridge W/m2
07:54 44.6 °F 23.0 °F 30.22 in Calm     42% 0.00 in meteobridge W/m2
07:59 44.8 °F 24.8 °F 30.21 in Calm     45% 0.00 in meteobridge W/m2
08:04 44.4 °F 23.9 °F 30.22 in Calm     44% 0.00 in meteobridge W/m2
08:09 44.6 °F 25.7 °F 30.22 in Calm     47% 0.00 in meteobridge W/m2
08:14 44.4 °F 25.5 °F 30.22 in Calm     47% 0.00 in meteobridge W/m2
08:19 44.4 °F 25.0 °F 30.22 in Calm     46% 0.00 in meteobridge W/m2
08:24 44.4 °F 26.4 °F 30.22 in Calm     49% 0.00 in meteobridge W/m2
08:29 44.4 °F 27.5 °F 30.22 in Calm     51% 0.00 in meteobridge W/m2
08:34 44.2 °F 26.8 °F 30.22 in Calm     50% 0.00 in meteobridge W/m2
08:39 44.2 °F 27.3 °F 30.22 in Calm     51% 0.00 in meteobridge W/m2
08:44 44.2 °F 25.3 °F 30.22 in Calm     47% 0.00 in meteobridge W/m2
08:49 44.4 °F 25.5 °F 30.22 in Calm     47% 0.00 in meteobridge W/m2
08:54 44.6 °F 25.7 °F 30.22 in Calm     47% 0.00 in meteobridge W/m2
08:59 45.0 °F 25.0 °F 30.22 in Calm     45% 0.00 in meteobridge W/m2
09:04 45.3 °F 24.6 °F 30.22 in Calm     44% 0.00 in meteobridge W/m2
09:09 45.3 °F 24.1 °F 30.22 in Calm     43% 0.00 in meteobridge W/m2
09:14 45.5 °F 23.7 °F 30.22 in Calm     42% 0.00 in meteobridge W/m2
09:19 45.7 °F 24.4 °F 30.21 in Calm   1.0 mph 43% 0.00 in meteobridge W/m2
09:24 45.7 °F 25.0 °F 30.21 in Calm     44% 0.00 in meteobridge W/m2
09:29 45.5 °F 23.2 °F 30.21 in Calm   1.0 mph 41% 0.00 in meteobridge W/m2
09:34 45.5 °F 23.2 °F 30.21 in Calm   4.0 mph 41% 0.00 in meteobridge W/m2
09:39 45.7 °F 23.4 °F 30.21 in Calm     41% 0.00 in meteobridge W/m2
09:44 45.7 °F 23.4 °F 30.20 in Calm   2.0 mph 41% 0.00 in meteobridge W/m2
09:49 45.9 °F 22.8 °F 30.20 in Calm   1.0 mph 40% 0.00 in meteobridge W/m2
09:54 46.0 °F 23.7 °F 30.20 in SE 0.9 mph 1.0 mph 41% 0.00 in meteobridge W/m2
09:59 46.0 °F 23.0 °F 30.20 in SE 0.9 mph 4.0 mph 40% 0.00 in meteobridge W/m2
10:04 46.0 °F 23.7 °F 30.21 in Calm   1.0 mph 41% 0.00 in meteobridge W/m2
10:09 46.0 °F 23.0 °F 30.21 in Calm   4.0 mph 40% 0.00 in meteobridge W/m2
10:14 46.0 °F 23.7 °F 30.21 in Calm     41% 0.00 in meteobridge W/m2
10:19 46.0 °F 23.7 °F 30.21 in ESE 0.9 mph 1.0 mph 41% 0.00 in meteobridge W/m2
10:24 46.0 °F 24.8 °F 30.21 in Calm     43% 0.00 in meteobridge W/m2
10:29 46.0 °F 23.7 °F 30.21 in Calm     41% 0.00 in meteobridge W/m2
10:34 46.6 °F 24.8 °F 30.21 in Calm   1.0 mph 42% 0.00 in meteobridge W/m2
10:39 47.1 °F 24.1 °F 30.21 in SE 6.9 mph 7.0 mph 40% 0.00 in meteobridge W/m2
10:44 47.7 °F 25.2 °F 30.20 in Calm   1.0 mph 41% 0.00 in meteobridge W/m2
10:49 48.2 °F 25.0 °F 30.20 in Calm   1.0 mph 40% 0.00 in meteobridge W/m2
10:54 48.9 °F 25.0 °F 30.20 in Calm   1.0 mph 39% 0.00 in meteobridge W/m2
10:59 48.9 °F 25.0 °F 30.20 in Calm   1.0 mph 39% 0.00 in meteobridge W/m2
11:04 48.9 °F 25.0 °F 30.21 in Calm   1.0 mph 39% 0.00 in meteobridge W/m2
11:09 48.7 °F 24.8 °F 30.21 in Calm     39% 0.00 in meteobridge W/m2
11:14 48.6 °F 24.8 °F 30.21 in Calm   3.0 mph 39% 0.00 in meteobridge W/m2
11:19 48.6 °F 25.9 °F 30.21 in Calm     41% 0.00 in meteobridge W/m2
11:24 48.7 °F 24.8 °F 30.21 in NNE 2.0 mph 2.0 mph 39% 0.00 in meteobridge W/m2
11:29 49.1 °F 25.2 °F 30.20 in Calm     39% 0.00 in meteobridge W/m2
11:34 49.6 °F 25.0 °F 30.21 in SE 2.0 mph 4.0 mph 38% 0.00 in meteobridge W/m2
11:39 50.0 °F 25.3 °F 30.20 in Calm     38% 0.00 in meteobridge W/m2
11:44 50.7 °F 26.1 °F 30.20 in NE 0.9 mph 1.0 mph 38% 0.00 in meteobridge W/m2
11:49 51.3 °F 26.6 °F 30.20 in Calm     38% 0.00 in meteobridge W/m2
11:54 51.3 °F 25.9 °F 30.20 in Calm     37% 0.00 in meteobridge W/m2
11:59 51.3 °F 27.1 °F 30.20 in Calm     39% 0.00 in meteobridge W/m2
12:04 51.3 °F 25.9 °F 30.20 in Calm     37% 0.00 in meteobridge W/m2
12:09 51.4 °F 26.1 °F 30.20 in Calm     37% 0.00 in meteobridge W/m2
12:14 52.2 °F 26.1 °F 30.19 in Calm   1.0 mph 36% 0.00 in meteobridge W/m2
12:19 52.3 °F 26.2 °F 30.19 in ESE 2.0 mph 5.0 mph 36% 0.00 in meteobridge W/m2
12:24 52.5 °F 26.2 °F 30.19 in ESE 0.9 mph 1.0 mph 36% 0.00 in meteobridge W/m2
12:29 52.7 °F 27.1 °F 30.19 in Calm   4.0 mph 37% 0.00 in meteobridge W/m2
12:34 53.1 °F 28.0 °F 30.18 in Calm   2.0 mph 38% 0.00 in meteobridge W/m2
12:39 53.8 °F 29.5 °F 30.18 in Calm   1.0 mph 39% 0.00 in meteobridge W/m2
12:44 54.0 °F 27.7 °F 30.18 in Calm   1.0 mph 36% 0.00 in meteobridge W/m2
12:49 54.3 °F 30.6 °F 30.18 in SE 4.0 mph 5.0 mph 40% 0.00 in meteobridge W/m2
12:54 54.9 °F 30.9 °F 30.17 in Calm   4.0 mph 40% 0.00 in meteobridge W/m2
12:59 55.0 °F 30.6 °F 30.17 in Calm   4.0 mph 39% 0.00 in meteobridge W/m2
13:04 55.2 °F 30.7 °F 30.17 in ENE 0.9 mph 3.0 mph 39% 0.00 in meteobridge W/m2
13:09 55.8 °F 31.8 °F 30.17 in Calm   1.0 mph 40% 0.00 in meteobridge W/m2
13:14 55.9 °F 30.7 °F 30.17 in Calm   1.0 mph 38% 0.00 in meteobridge W/m2
13:19 56.1 °F 29.5 °F 30.17 in Calm   2.0 mph 36% 0.00 in meteobridge W/m2
13:24 55.8 °F 29.8 °F 30.17 in Calm     37% 0.00 in meteobridge W/m2
13:29 55.9 °F 29.3 °F 30.17 in Calm   2.0 mph 36% 0.00 in meteobridge W/m2
13:34 56.1 °F 29.5 °F 30.17 in ESE 2.0 mph 4.0 mph 36% 0.00 in meteobridge W/m2
13:39 56.1 °F 29.5 °F 30.16 in Calm   4.0 mph 36% 0.00 in meteobridge W/m2
13:44 56.1 °F 29.5 °F 30.17 in Calm   5.0 mph 36% 0.00 in meteobridge W/m2
13:49 55.9 °F 28.8 °F 30.16 in Calm   3.0 mph 35% 0.00 in meteobridge W/m2
13:54 55.8 °F 29.1 °F 30.16 in WNW 2.9 mph 4.0 mph 36% 0.00 in meteobridge W/m2
13:59 55.9 °F 31.3 °F 30.16 in NW 0.9 mph 2.0 mph 39% 0.00 in meteobridge W/m2
14:04 56.8 °F 30.2 °F 30.16 in NNW 2.0 mph 4.0 mph 36% 0.00 in meteobridge W/m2
14:09 57.4 °F 30.6 °F 30.16 in Calm   3.0 mph 36% 0.00 in meteobridge W/m2
14:14 57.7 °F 30.2 °F 30.16 in NNW 0.9 mph 4.0 mph 35% 0.00 in meteobridge W/m2
14:19 57.9 °F 30.4 °F 30.16 in ESE 0.9 mph 4.0 mph 35% 0.00 in meteobridge W/m2
14:24 57.4 °F 30.6 °F 30.16 in Calm   3.0 mph 36% 0.00 in meteobridge W/m2
14:29 57.7 °F 30.9 °F 30.16 in ENE 2.9 mph 6.0 mph 36% 0.00 in meteobridge W/m2
14:34 57.7 °F 30.9 °F 30.16 in Calm   4.0 mph 36% 0.00 in meteobridge W/m2
14:39 57.7 °F 30.9 °F 30.15 in Calm   4.0 mph 36% 0.00 in meteobridge W/m2
14:44 57.7 °F 30.2 °F 30.15 in Calm   4.0 mph 35% 0.00 in meteobridge W/m2
14:49 57.4 °F 31.3 °F 30.16 in Calm   3.0 mph 37% 0.00 in meteobridge W/m2
14:54 56.8 °F 29.5 °F 30.15 in NE 0.9 mph 2.0 mph 35% 0.00 in meteobridge W/m2
14:59 56.7 °F 30.7 °F 30.15 in NW 4.9 mph 8.0 mph 37% 0.00 in meteobridge W/m2
15:04 56.8 °F 31.5 °F 30.15 in Calm   1.0 mph 38% 0.00 in meteobridge W/m2
15:09 57.2 °F 31.8 °F 30.15 in Calm   3.0 mph 38% 0.00 in meteobridge W/m2
15:14 57.4 °F 31.3 °F 30.15 in North 8.1 mph 8.0 mph 37% 0.00 in meteobridge W/m2
15:19 57.4 °F 30.0 °F 30.15 in Calm   3.0 mph 35% 0.00 in meteobridge W/m2
15:24 57.0 °F 31.6 °F 30.15 in ESE 2.0 mph 3.0 mph 38% 0.00 in meteobridge W/m2
15:29 57.7 °F 30.9 °F 30.15 in Calm   7.0 mph 36% 0.00 in meteobridge W/m2
15:34 57.9 °F 31.1 °F 30.15 in Calm   5.0 mph 36% 0.00 in meteobridge W/m2
15:39 58.8 °F 32.5 °F 30.14 in Calm   4.0 mph 37% 0.00 in meteobridge W/m2
15:44 58.6 °F 31.1 °F 30.14 in Calm   2.0 mph 35% 0.00 in meteobridge W/m2
15:49 57.9 °F 31.8 °F 30.14 in Calm   1.0 mph 37% 0.00 in meteobridge W/m2
15:54 57.7 °F 31.6 °F 30.14 in Calm   1.0 mph 37% 0.00 in meteobridge W/m2
15:59 58.3 °F 32.2 °F 30.14 in WNW 2.0 mph 6.0 mph 37% 0.00 in meteobridge W/m2
16:04 58.3 °F 32.2 °F 30.14 in Calm   6.0 mph 37% 0.00 in meteobridge W/m2
16:09 57.9 °F 31.8 °F 30.14 in North 0.9 mph 4.0 mph 37% 0.00 in meteobridge W/m2
16:14 57.9 °F 32.5 °F 30.15 in Calm   4.0 mph 38% 0.00 in meteobridge W/m2
16:19 57.6 °F 33.4 °F 30.15 in Calm   1.0 mph 40% 0.00 in meteobridge W/m2
16:24 57.4 °F 32.5 °F 30.15 in Calm   1.0 mph 39% 0.00 in meteobridge W/m2
16:29 57.2 °F 33.1 °F 30.15 in Calm   4.0 mph 40% 0.00 in meteobridge W/m2
16:34 57.2 °F 32.5 °F 30.14 in NW 2.9 mph 3.0 mph 39% 0.00 in meteobridge W/m2
16:39 57.2 °F 33.1 °F 30.15 in Calm   4.0 mph 40% 0.00 in meteobridge W/m2
16:44 57.4 °F 32.5 °F 30.15 in North 0.9 mph 1.0 mph 39% 0.00 in meteobridge W/m2
16:49 57.4 °F 33.3 °F 30.15 in NW 4.0 mph 6.0 mph 40% 0.00 in meteobridge W/m2
16:54 57.2 °F 33.1 °F 30.14 in Calm   3.0 mph 40% 0.00 in meteobridge W/m2
16:59 56.8 °F 32.7 °F 30.14 in Calm   2.0 mph 40% 0.00 in meteobridge W/m2
17:04 56.7 °F 33.3 °F 30.14 in West 2.9 mph 3.0 mph 41% 0.00 in meteobridge W/m2
17:09 56.7 °F 33.3 °F 30.14 in Calm   2.0 mph 41% 0.00 in meteobridge W/m2
17:14 56.5 °F 33.6 °F 30.14 in NW 0.9 mph 2.0 mph 42% 0.00 in meteobridge W/m2
17:19 56.5 °F 33.1 °F 30.14 in NW 4.0 mph 7.0 mph 41% 0.00 in meteobridge W/m2
17:24 55.9 °F 33.8 °F 30.15 in WNW 2.0 mph 6.0 mph 43% 0.00 in meteobridge W/m2
17:29 55.8 °F 33.1 °F 30.14 in WNW 6.0 mph 10.0 mph 42% 0.00 in meteobridge W/m2
17:34 55.8 °F 33.6 °F 30.15 in Calm     43% 0.00 in meteobridge W/m2
17:39 55.6 °F 33.4 °F 30.15 in NNE 4.0 mph 6.0 mph 43% 0.00 in meteobridge W/m2
17:44 55.8 °F 33.6 °F 30.15 in NW 0.9 mph 5.0 mph 43% 0.00 in meteobridge W/m2
17:49 55.8 °F 33.6 °F 30.15 in West 6.0 mph 7.0 mph 43% 0.00 in meteobridge W/m2
17:54 55.8 °F 33.6 °F 30.15 in Calm   7.0 mph 43% 0.00 in meteobridge W/m2
17:59 55.8 °F 33.6 °F 30.15 in NW 0.9 mph 4.0 mph 43% 0.00 in meteobridge W/m2
18:04 55.8 °F 34.2 °F 30.15 in Calm     44% 0.00 in meteobridge W/m2
18:09 55.8 °F 34.2 °F 30.16 in Calm   1.0 mph 44% 0.00 in meteobridge W/m2
18:14 55.2 °F 33.6 °F 30.16 in Calm   2.0 mph 44% 0.00 in meteobridge W/m2
18:19 55.0 °F 34.7 °F 30.16 in Calm   5.0 mph 46% 0.00 in meteobridge W/m2
18:24 55.0 °F 34.2 °F 30.16 in Calm     45% 0.00 in meteobridge W/m2
18:29 55.0 °F 34.2 °F 30.16 in Calm     45% 0.00 in meteobridge W/m2
18:34 54.9 °F 33.4 °F 30.16 in Calm     44% 0.00 in meteobridge W/m2
18:39 54.9 °F 34.5 °F 30.16 in Calm     46% 0.00 in meteobridge W/m2
18:44 54.7 °F 34.9 °F 30.16 in Calm   1.0 mph 47% 0.00 in meteobridge W/m2
18:49 54.3 °F 33.4 °F 30.16 in Calm     45% 0.00 in meteobridge W/m2
18:54 54.3 °F 34.5 °F 30.16 in Calm     47% 0.00 in meteobridge W/m2
18:59 54.1 °F 33.8 °F 30.16 in Calm     46% 0.00 in meteobridge W/m2
19:04 54.1 °F 33.8 °F 30.16 in NW 0.9 mph 3.0 mph 46% 0.00 in meteobridge W/m2
19:09 54.1 °F 33.8 °F 30.16 in Calm   4.0 mph 46% 0.00 in meteobridge W/m2
19:14 54.0 °F 34.2 °F 30.16 in Calm   3.0 mph 47% 0.00 in meteobridge W/m2
19:19 54.0 °F 33.6 °F 30.17 in NW 2.0 mph 6.0 mph 46% 0.00 in meteobridge W/m2
19:24 54.0 °F 33.1 °F 30.17 in Calm   1.0 mph 45% 0.00 in meteobridge W/m2
19:29 54.0 °F 33.6 °F 30.17 in Calm     46% 0.00 in meteobridge W/m2
19:34 53.8 °F 34.0 °F 30.17 in Calm   1.0 mph 47% 0.00 in meteobridge W/m2
19:39 53.4 °F 33.6 °F 30.17 in Calm     47% 0.00 in meteobridge W/m2
19:44 53.2 °F 34.5 °F 30.17 in Calm     49% 0.00 in meteobridge W/m2
19:49 52.9 °F 34.2 °F 30.17 in Calm     49% 0.00 in meteobridge W/m2
19:54 52.5 °F 34.9 °F 30.18 in Calm     51% 0.00 in meteobridge W/m2
19:59 52.2 °F 34.5 °F 30.18 in Calm     51% 0.00 in meteobridge W/m2
20:04 51.6 °F 34.5 °F 30.18 in Calm     52% 0.00 in meteobridge W/m2
20:09 51.3 °F 34.7 °F 30.18 in Calm     53% 0.00 in meteobridge W/m2
20:14 50.9 °F 34.3 °F 30.18 in Calm     53% 0.00 in meteobridge W/m2
20:19 50.5 °F 34.5 °F 30.18 in Calm     54% 0.00 in meteobridge W/m2
20:24 50.2 °F 34.7 °F 30.18 in Calm     55% 0.00 in meteobridge W/m2
20:29 49.8 °F 34.7 °F 30.18 in Calm     56% 0.00 in meteobridge W/m2
20:34 49.5 °F 35.2 °F 30.18 in Calm     58% 0.00 in meteobridge W/m2
20:39 48.7 °F 34.7 °F 30.19 in Calm     58% 0.00 in meteobridge W/m2
20:44 48.4 °F 34.7 °F 30.19 in Calm     59% 0.00 in meteobridge W/m2
20:49 47.8 °F 34.7 °F 30.19 in Calm     60% 0.00 in meteobridge W/m2
20:54 47.3 °F 34.9 °F 30.19 in Calm     62% 0.00 in meteobridge W/m2
20:59 46.9 °F 35.1 °F 30.19 in Calm     63% 0.00 in meteobridge W/m2
21:04 46.6 °F 34.7 °F 30.19 in Calm     63% 0.00 in meteobridge W/m2
21:09 46.2 °F 35.1 °F 30.19 in Calm     65% 0.00 in meteobridge W/m2
21:14 45.9 °F 34.3 °F 30.20 in Calm     64% 0.00 in meteobridge W/m2
21:19 45.5 °F 34.3 °F 30.20 in Calm     65% 0.00 in meteobridge W/m2
21:24 45.1 °F 34.5 °F 30.20 in Calm     66% 0.00 in meteobridge W/m2
21:29 44.8 °F 34.2 °F 30.20 in Calm     66% 0.00 in meteobridge W/m2
21:34 44.4 °F 34.2 °F 30.21 in Calm     67% 0.00 in meteobridge W/m2
21:39 44.2 °F 34.3 °F 30.21 in Calm     68% 0.00 in meteobridge W/m2
21:44 43.9 °F 34.0 °F 30.21 in Calm     68% 0.00 in meteobridge W/m2
21:49 43.5 °F 34.0 °F 30.21 in Calm     69% 0.00 in meteobridge W/m2
21:54 43.3 °F 34.2 °F 30.22 in Calm     70% 0.00 in meteobridge W/m2
21:59 43.2 °F 34.0 °F 30.22 in Calm     70% 0.00 in meteobridge W/m2
22:04 42.8 °F 34.0 °F 30.22 in Calm     71% 0.00 in meteobridge W/m2
22:09 42.4 °F 34.0 °F 30.22 in Calm     72% 0.00 in meteobridge W/m2
22:14 42.3 °F 34.2 °F 30.22 in Calm     73% 0.00 in meteobridge W/m2
22:19 42.1 °F 34.0 °F 30.22 in Calm     73% 0.00 in meteobridge W/m2
22:24 41.7 °F 34.0 °F 30.23 in Calm     74% 0.00 in meteobridge W/m2
22:29 41.5 °F 33.8 °F 30.23 in Calm     74% 0.00 in meteobridge W/m2
22:34 41.4 °F 33.6 °F 30.23 in Calm     74% 0.00 in meteobridge W/m2
22:39 41.2 °F 33.8 °F 30.23 in Calm     75% 0.00 in meteobridge W/m2
22:44 40.8 °F 33.8 °F 30.24 in Calm     76% 0.00 in meteobridge W/m2
22:49 40.6 °F 34.0 °F 30.24 in Calm     77% 0.00 in meteobridge W/m2
22:54 40.5 °F 33.8 °F 30.24 in Calm     77% 0.00 in meteobridge W/m2
22:59 40.3 °F 33.6 °F 30.24 in Calm     77% 0.00 in meteobridge W/m2
23:04 39.9 °F 33.6 °F 30.24 in Calm     78% 0.00 in meteobridge W/m2
23:09 39.7 °F 33.4 °F 30.24 in Calm     78% 0.00 in meteobridge W/m2
23:14 39.6 °F 33.6 °F 30.24 in Calm     79% 0.00 in meteobridge W/m2
23:19 39.4 °F 33.8 °F 30.24 in Calm     80% 0.00 in meteobridge W/m2
23:24 39.2 °F 33.6 °F 30.25 in Calm     80% 0.00 in meteobridge W/m2
23:29 39.0 °F 33.4 °F 30.25 in Calm     80% 0.00 in meteobridge W/m2
23:34 38.8 °F 33.3 °F 30.25 in Calm     80% 0.00 in meteobridge W/m2
23:39 38.7 °F 33.3 °F 30.25 in Calm     81% 0.00 in meteobridge W/m2
23:44 38.5 °F 33.1 °F 30.25 in Calm     81% 0.00 in meteobridge W/m2
23:49 38.3 °F 32.9 °F 30.25 in Calm     81% 0.00 in meteobridge W/m2
23:54 38.1 °F 33.1 °F 30.25 in Calm     82% 0.00 in meteobridge W/m2
23:59 37.9 °F 32.9 °F 30.25 in Calm     82% 0.00 in meteobridge W/m2
EllijayWeather
Compliments of Weather Underground - 2.5 mb